createdAt,value
2018-01-05T00:01:12.690Z,96746.36
2018-01-05T00:21:46.734Z,96769.67
2018-01-05T00:42:20.776Z,96766.44
2018-01-05T01:02:54.211Z,96753.68
2018-01-05T01:23:31.645Z,96766.55
2018-01-05T01:44:06.593Z,96762.00
2018-01-05T02:04:43.114Z,96758.09
2018-01-05T02:25:15.316Z,96739.64
2018-01-05T02:45:50.256Z,96752.05
2018-01-05T03:06:25.531Z,96716.84
2018-01-05T03:27:01.008Z,96687.94
2018-01-05T03:47:33.926Z,96675.42
2018-01-05T04:08:09.198Z,96683.27
2018-01-05T04:28:42.320Z,96664.45
2018-01-05T04:49:14.855Z,96641.72
2018-01-05T05:09:47.054Z,96621.41
2018-01-05T05:30:21.990Z,96624.22
2018-01-05T05:50:55.650Z,96627.58
2018-01-05T06:11:31.305Z,96642.34
2018-01-05T06:32:05.658Z,96644.58
2018-01-05T06:52:42.204Z,96625.89
2018-01-05T07:13:16.200Z,96635.02
2018-01-05T07:33:53.678Z,96656.74
2018-01-05T07:54:27.666Z,96645.79
2018-01-05T08:15:01.712Z,96659.73
2018-01-05T08:35:37.346Z,96672.97
2018-01-05T08:56:10.555Z,96665.61
2018-01-05T09:16:46.799Z,96664.13
2018-01-05T09:37:21.015Z,96655.68
2018-01-05T09:57:53.768Z,96659.16
2018-01-05T10:18:29.456Z,96656.42
2018-01-05T10:39:01.240Z,96627.99
2018-01-05T10:59:34.665Z,96630.77
2018-01-05T11:20:10.104Z,96602.38
2018-01-05T11:40:43.063Z,96645.11
2018-01-05T12:01:17.535Z,96624.93
2018-01-05T12:21:50.532Z,96615.27
2018-01-05T12:42:26.727Z,96623.77
2018-01-05T13:02:59.846Z,96607.39
2018-01-05T13:23:34.817Z,96605.05
2018-01-05T13:44:10.393Z,96599.66
2018-01-05T14:04:45.666Z,96665.59
2018-01-05T14:25:19.713Z,96689.15
2018-01-05T14:45:51.912Z,96726.10
2018-01-05T15:06:25.382Z,96712.11
2018-01-05T15:26:58.462Z,96706.23
2018-01-05T15:47:34.981Z,96707.39
2018-01-05T16:08:09.925Z,96739.50
2018-01-05T16:28:43.612Z,96761.53
2018-01-05T16:49:14.322Z,96785.13
2018-01-05T17:09:48.675Z,96792.09
2018-01-05T17:30:22.036Z,96798.58
2018-01-05T17:50:53.076Z,96787.38
2018-01-05T18:11:27.446Z,96816.53
2018-01-05T18:32:03.347Z,96830.47
2018-01-05T18:52:34.586Z,96848.88
2018-01-05T19:13:12.935Z,96855.29
2018-01-05T19:33:49.376Z,96873.11
2018-01-05T19:54:23.595Z,96876.64
2018-01-05T20:15:00.594Z,96917.71
2018-01-05T20:35:34.632Z,96935.83
2018-01-05T20:56:13.727Z,96951.33
2018-01-05T21:16:51.324Z,96982.89
2018-01-05T21:37:26.600Z,97001.88
2018-01-05T21:58:01.875Z,97019.00
2018-01-05T22:18:35.914Z,97032.65
2018-01-05T22:39:16.406Z,97038.25
2018-01-05T22:59:50.144Z,97065.59
2018-01-05T23:20:25.721Z,97098.41
2018-01-05T23:40:58.842Z,97112.15
